createdAt,value
2023-05-02T00:00:17.199Z,5.43
2023-05-02T00:03:18.943Z,5.00
2023-05-02T00:06:20.726Z,5.43
2023-05-02T00:09:22.561Z,6.13
2023-05-02T00:12:24.186Z,5.10
2023-05-02T00:15:27.392Z,6.30
2023-05-02T00:18:28.957Z,5.07
2023-05-02T00:21:31.239Z,4.90
2023-05-02T00:24:33.141Z,5.70
2023-05-02T00:27:34.790Z,5.53
2023-05-02T00:30:36.729Z,6.00
2023-05-02T00:33:38.255Z,5.97
2023-05-02T00:36:39.801Z,6.17
2023-05-02T00:39:41.582Z,5.90
2023-05-02T00:42:43.132Z,6.80
2023-05-02T00:45:46.286Z,7.07
2023-05-02T00:48:48.191Z,8.70
2023-05-02T00:51:49.850Z,7.10
2023-05-02T00:54:51.883Z,8.13
2023-05-02T00:57:53.501Z,7.77
2023-05-02T01:01:08.032Z,7.57
2023-05-02T01:04:40.955Z,8.53
2023-05-02T01:08:02.809Z,6.87
2023-05-02T01:11:27.298Z,8.60
2023-05-02T01:14:32.162Z,8.50
2023-05-02T01:17:35.772Z,7.80
2023-05-02T01:20:41.712Z,7.63
2023-05-02T01:24:06.759Z,8.07
2023-05-02T01:27:14.678Z,9.60
2023-05-02T01:30:18.779Z,9.63
2023-05-02T01:33:22.685Z,8.70
2023-05-02T01:36:30.250Z,11.27
2023-05-02T01:39:33.446Z,10.27
2023-05-02T01:42:37.160Z,10.37
2023-05-02T01:45:40.470Z,10.40
2023-05-02T01:48:45.561Z,10.70
2023-05-02T01:51:52.229Z,10.50
2023-05-02T01:54:55.431Z,10.43
2023-05-02T01:57:57.796Z,10.47
2023-05-02T02:01:01.550Z,11.23
2023-05-02T02:04:06.674Z,13.37
2023-05-02T02:07:12.872Z,11.00
2023-05-02T02:10:14.613Z,9.90
2023-05-02T02:13:33.704Z,10.80
2023-05-02T02:16:38.886Z,11.60
2023-05-02T02:19:42.099Z,14.30
2023-05-02T02:22:45.305Z,10.90
2023-05-02T02:25:48.540Z,12.77
2023-05-02T02:28:51.019Z,11.90
2023-05-02T02:31:52.557Z,12.40
2023-05-02T02:34:55.181Z,17.03
2023-05-02T02:38:10.380Z,12.93
2023-05-02T02:41:25.230Z,13.90
2023-05-02T02:44:49.551Z,12.97
2023-05-02T02:47:59.987Z,13.90
2023-05-02T02:51:16.081Z,13.20
2023-05-02T02:54:35.346Z,14.47
2023-05-02T02:57:48.014Z,17.60
2023-05-02T03:00:50.333Z,16.03
2023-05-02T03:03:53.445Z,14.50
2023-05-02T03:06:55.246Z,15.47
2023-05-02T03:09:56.926Z,17.23
2023-05-02T03:12:58.548Z,15.87
2023-05-02T03:16:19.155Z,17.33
2023-05-02T03:19:20.815Z,14.80
2023-05-02T03:22:22.355Z,16.20
2023-05-02T03:25:23.925Z,16.97
2023-05-02T03:28:25.519Z,15.10
2023-05-02T03:31:27.133Z,15.10
2023-05-02T03:34:28.781Z,17.13
2023-05-02T03:37:30.549Z,16.30
2023-05-02T03:40:32.110Z,14.00
2023-05-02T03:43:33.679Z,16.87
2023-05-02T03:46:36.375Z,13.90
2023-05-02T03:49:38.087Z,15.00
2023-05-02T03:52:39.832Z,18.00
2023-05-02T03:55:44.518Z,16.43
2023-05-02T03:58:46.445Z,17.43
2023-05-02T04:01:51.351Z,19.00
2023-05-02T04:04:52.988Z,22.23
2023-05-02T04:07:55.528Z,20.30
2023-05-02T04:10:57.081Z,21.27
2023-05-02T04:13:58.669Z,20.57
2023-05-02T04:17:00.297Z,19.40
2023-05-02T04:20:05.030Z,20.43
2023-05-02T04:23:07.859Z,22.80
2023-05-02T04:26:09.430Z,24.30
2023-05-02T04:29:11.212Z,25.10
2023-05-02T04:32:12.796Z,26.63
2023-05-02T04:35:15.437Z,25.73
2023-05-02T04:38:17.590Z,27.00
2023-05-02T04:41:19.455Z,38.70
2023-05-02T04:44:21.012Z,37.80
2023-05-02T04:47:22.585Z,29.63
2023-05-02T04:50:24.327Z,33.00
2023-05-02T04:53:25.882Z,30.83
2023-05-02T04:56:27.537Z,31.07
2023-05-02T04:59:30.075Z,31.53
2023-05-02T05:02:31.721Z,33.20
2023-05-02T05:05:34.449Z,37.70
2023-05-02T05:08:36.128Z,32.60
2023-05-02T05:11:39.320Z,29.57
2023-05-02T05:14:41.221Z,31.77
2023-05-02T05:17:42.979Z,30.43
2023-05-02T05:20:44.668Z,32.33
2023-05-02T05:23:47.518Z,34.53
2023-05-02T05:26:49.079Z,36.07
2023-05-02T05:29:50.675Z,38.40
2023-05-02T05:32:53.227Z,41.17
2023-05-02T05:35:54.856Z,39.30
2023-05-02T05:38:56.567Z,42.00
2023-05-02T05:41:58.371Z,39.03
2023-05-02T05:45:00.008Z,44.10
2023-05-02T05:48:01.658Z,42.50
2023-05-02T05:51:06.769Z,46.90
2023-05-02T05:54:09.035Z,50.13
2023-05-02T05:57:10.693Z,40.50
2023-05-02T06:00:13.057Z,48.20
2023-05-02T06:03:14.856Z,43.23
2023-05-02T06:06:16.606Z,47.63
2023-05-02T06:09:18.186Z,45.83
2023-05-02T06:12:19.792Z,46.13
2023-05-02T06:15:21.331Z,48.30
2023-05-02T06:18:22.997Z,51.00
2023-05-02T06:21:24.553Z,49.37
2023-05-02T06:24:26.122Z,52.90
2023-05-02T06:27:27.792Z,47.60
2023-05-02T06:30:29.440Z,50.47
2023-05-02T06:33:32.026Z,51.27
2023-05-02T06:36:33.644Z,51.10
2023-05-02T06:39:35.287Z,53.30
2023-05-02T06:42:36.835Z,52.03
2023-05-02T06:45:39.332Z,51.67
2023-05-02T06:48:40.886Z,51.30
2023-05-02T06:51:43.232Z,47.10
2023-05-02T06:54:44.871Z,49.23
2023-05-02T06:57:46.674Z,58.13
2023-05-02T07:00:49.454Z,49.80
2023-05-02T07:03:51.138Z,45.53
2023-05-02T07:06:52.972Z,44.60
2023-05-02T07:09:54.727Z,48.37
2023-05-02T07:12:56.453Z,48.00
2023-05-02T07:15:58.298Z,48.87
2023-05-02T07:19:01.487Z,51.60
2023-05-02T07:22:03.375Z,47.90
2023-05-02T07:25:05.589Z,43.90
2023-05-02T07:28:08.617Z,50.20
2023-05-02T07:31:10.201Z,47.33
2023-05-02T07:34:11.995Z,48.67
2023-05-02T07:37:13.679Z,49.43
2023-05-02T07:40:15.313Z,46.53
2023-05-02T07:43:16.899Z,40.87
2023-05-02T07:46:18.617Z,43.30
2023-05-02T07:49:20.484Z,42.53
2023-05-02T07:52:22.547Z,42.10
2023-05-02T07:55:26.535Z,38.80
2023-05-02T07:58:28.376Z,39.50
2023-05-02T08:01:30.050Z,36.10
2023-05-02T08:04:31.624Z,39.77
2023-05-02T08:07:35.224Z,36.97
2023-05-02T08:10:36.776Z,34.83
2023-05-02T08:13:38.326Z,34.23
2023-05-02T08:16:40.139Z,32.03
2023-05-02T08:19:41.735Z,30.63
2023-05-02T08:22:43.373Z,23.03
2023-05-02T08:25:44.935Z,24.93
2023-05-02T08:28:46.484Z,26.50
2023-05-02T08:31:48.185Z,21.60
2023-05-02T08:34:49.810Z,22.27
2023-05-02T08:37:51.432Z,22.90
2023-05-02T08:40:53.023Z,25.87
2023-05-02T08:43:56.203Z,30.30
2023-05-02T08:46:59.838Z,26.60
2023-05-02T08:50:03.220Z,27.80
2023-05-02T08:53:06.851Z,30.20
2023-05-02T08:56:09.834Z,29.27
2023-05-02T08:59:12.844Z,30.00
2023-05-02T09:02:45.899Z,28.27
2023-05-02T09:05:52.807Z,25.20
2023-05-02T09:08:54.884Z,24.10
2023-05-02T09:11:56.566Z,24.53
2023-05-02T09:15:10.725Z,20.03
2023-05-02T09:18:20.468Z,23.10
2023-05-02T09:21:27.217Z,23.33
2023-05-02T09:24:29.637Z,21.23
2023-05-02T09:27:52.547Z,22.20
2023-05-02T09:31:11.221Z,19.83
2023-05-02T09:34:15.366Z,17.93
2023-05-02T09:37:34.889Z,16.40
2023-05-02T09:40:36.938Z,13.97
2023-05-02T09:43:39.265Z,18.10
2023-05-02T09:46:52.268Z,17.87
2023-05-02T09:49:54.318Z,19.77
2023-05-02T09:53:06.796Z,15.23
2023-05-02T09:56:08.570Z,15.70
2023-05-02T09:59:16.836Z,15.37
2023-05-02T10:02:19.087Z,11.70
2023-05-02T10:05:21.284Z,15.90
2023-05-02T10:08:28.423Z,16.10
2023-05-02T10:11:32.267Z,13.73
2023-05-02T10:14:41.717Z,15.50
2023-05-02T10:17:48.450Z,14.80
2023-05-02T10:21:01.574Z,18.53
2023-05-02T10:24:04.301Z,18.10
2023-05-02T10:27:06.547Z,15.50
2023-05-02T10:30:09.307Z,15.67
2023-05-02T10:33:14.027Z,16.67
2023-05-02T10:36:15.804Z,15.27
2023-05-02T10:39:18.165Z,16.73
2023-05-02T10:42:20.655Z,13.40
2023-05-02T10:45:36.191Z,19.47
2023-05-02T10:48:38.613Z,12.00
2023-05-02T10:51:42.717Z,12.60
2023-05-02T10:54:44.340Z,13.40
2023-05-02T10:58:21.423Z,15.07
2023-05-02T11:01:27.080Z,12.37
2023-05-02T11:05:05.245Z,11.43
2023-05-02T11:08:15.807Z,11.13
2023-05-02T11:11:43.738Z,10.80
2023-05-02T11:14:47.549Z,12.10
2023-05-02T11:18:02.565Z,10.57
2023-05-02T11:21:40.085Z,12.23
2023-05-02T11:24:44.424Z,10.40
2023-05-02T11:27:49.124Z,7.43
2023-05-02T11:30:50.912Z,8.13
2023-05-02T11:33:59.386Z,7.10
2023-05-02T11:37:00.971Z,8.10
2023-05-02T11:40:13.215Z,7.03
2023-05-02T11:43:16.852Z,8.83
2023-05-02T11:46:20.176Z,8.23
2023-05-02T11:49:22.133Z,5.73
2023-05-02T11:52:24.385Z,6.53
2023-05-02T11:55:25.999Z,5.10
2023-05-02T11:58:33.433Z,5.77
2023-05-02T12:01:35.225Z,5.20
2023-05-02T12:04:45.912Z,5.30
2023-05-02T12:07:50.526Z,5.30
2023-05-02T12:10:53.492Z,4.83
2023-05-02T12:13:55.076Z,6.60
2023-05-02T12:16:59.155Z,5.20
2023-05-02T12:20:03.437Z,4.90
2023-05-02T12:23:10.085Z,4.47
2023-05-02T12:26:18.676Z,5.20
2023-05-02T12:29:20.266Z,5.70
2023-05-02T12:32:34.181Z,4.73
2023-05-02T12:35:36.544Z,4.60
2023-05-02T12:38:38.210Z,4.60
2023-05-02T12:41:43.614Z,6.33
2023-05-02T12:44:46.720Z,6.23
2023-05-02T12:47:48.386Z,6.50
2023-05-02T12:50:50.862Z,7.10
2023-05-02T12:53:52.423Z,7.70
2023-05-02T12:56:54.074Z,7.40
2023-05-02T12:59:55.690Z,10.40
2023-05-02T13:02:57.387Z,8.33
2023-05-02T13:05:59.017Z,11.03
2023-05-02T13:09:00.824Z,8.07
2023-05-02T13:12:03.749Z,11.87
2023-05-02T13:15:06.999Z,8.17
2023-05-02T13:18:09.104Z,8.67
2023-05-02T13:21:10.823Z,9.47
2023-05-02T13:24:13.094Z,8.07
2023-05-02T13:27:15.187Z,10.43
2023-05-02T13:30:16.831Z,7.00
2023-05-02T13:33:18.619Z,7.33
2023-05-02T13:36:20.252Z,8.47
2023-05-02T13:39:21.924Z,6.80
2023-05-02T13:42:23.594Z,6.40
2023-05-02T13:45:25.263Z,7.10
2023-05-02T13:48:26.973Z,7.00
2023-05-02T13:51:28.567Z,6.33
2023-05-02T13:54:30.199Z,5.53
2023-05-02T13:57:32.320Z,5.20
2023-05-02T14:00:34.737Z,5.17
2023-05-02T14:03:36.472Z,5.10
2023-05-02T14:06:38.586Z,6.50
2023-05-02T14:09:40.598Z,8.07
2023-05-02T14:12:42.162Z,6.93
2023-05-02T14:15:43.782Z,5.63
2023-05-02T14:18:49.962Z,5.40
2023-05-02T14:21:51.562Z,6.10
2023-05-02T14:24:53.197Z,5.60
2023-05-02T14:27:54.760Z,6.97
2023-05-02T14:30:56.556Z,5.90
2023-05-02T14:33:58.502Z,6.27
2023-05-02T14:37:00.066Z,6.00
2023-05-02T14:40:01.858Z,7.13
2023-05-02T14:43:03.879Z,7.90
2023-05-02T14:46:05.695Z,7.57
2023-05-02T14:49:07.328Z,10.67
2023-05-02T14:52:09.051Z,7.03
2023-05-02T14:55:10.841Z,7.97
2023-05-02T14:58:12.577Z,9.40
2023-05-02T15:01:21.704Z,8.00
2023-05-02T15:04:24.330Z,8.13
2023-05-02T15:07:26.840Z,6.97
2023-05-02T15:10:29.069Z,7.77
2023-05-02T15:13:30.621Z,7.63
2023-05-02T15:16:32.327Z,7.30
2023-05-02T15:19:34.080Z,10.10
2023-05-02T15:22:35.695Z,6.80
2023-05-02T15:25:37.292Z,10.63
2023-05-02T15:28:39.584Z,7.23
2023-05-02T15:31:41.330Z,8.20
2023-05-02T15:34:42.931Z,8.03
2023-05-02T15:37:44.510Z,8.43
2023-05-02T15:40:57.389Z,7.07
2023-05-02T15:43:59.649Z,11.13
2023-05-02T15:47:01.412Z,7.57
2023-05-02T15:50:03.557Z,6.50
2023-05-02T15:53:05.332Z,6.80
2023-05-02T15:56:13.622Z,10.37
2023-05-02T15:59:15.234Z,6.90
2023-05-02T16:02:16.838Z,7.37
2023-05-02T16:05:18.675Z,6.83
2023-05-02T16:08:20.893Z,7.83
2023-05-02T16:11:22.487Z,6.77
2023-05-02T16:14:25.973Z,6.80
2023-05-02T16:17:27.577Z,7.03
2023-05-02T16:20:29.237Z,6.97
2023-05-02T16:23:30.942Z,12.90
2023-05-02T16:26:33.550Z,9.57
2023-05-02T16:29:35.221Z,6.03
2023-05-02T16:32:40.395Z,5.80
2023-05-02T16:35:42.161Z,5.93
2023-05-02T16:38:43.720Z,5.30
2023-05-02T16:41:45.298Z,5.30
2023-05-02T16:44:46.876Z,5.93
2023-05-02T16:47:48.736Z,5.00
2023-05-02T16:50:50.755Z,5.50
2023-05-02T16:53:52.304Z,5.73
2023-05-02T16:56:53.884Z,6.20
2023-05-02T16:59:55.453Z,5.80
2023-05-02T17:02:57.158Z,5.10
2023-05-02T17:06:01.108Z,5.60
2023-05-02T17:09:03.675Z,11.33
2023-05-02T17:12:06.442Z,8.10
2023-05-02T17:15:08.397Z,7.30
2023-05-02T17:18:10.138Z,6.80
2023-05-02T17:21:12.054Z,8.60
2023-05-02T17:24:13.641Z,6.43
2023-05-02T17:27:15.546Z,6.10
2023-05-02T17:30:17.209Z,8.40
2023-05-02T17:33:18.784Z,5.70
2023-05-02T17:36:20.402Z,7.40
2023-05-02T17:39:22.935Z,6.07
2023-05-02T17:42:24.516Z,7.63
2023-05-02T17:45:27.937Z,10.47
2023-05-02T17:48:29.585Z,6.87
2023-05-02T17:51:33.549Z,5.97
2023-05-02T17:54:35.255Z,5.60
2023-05-02T17:57:36.796Z,5.60
2023-05-02T18:00:38.438Z,5.57
2023-05-02T18:03:40.531Z,5.73
2023-05-02T18:06:42.242Z,6.43
2023-05-02T18:09:43.850Z,5.40
2023-05-02T18:12:45.474Z,5.97
2023-05-02T18:15:55.865Z,7.20
2023-05-02T18:18:57.439Z,5.93
2023-05-02T18:21:58.981Z,5.57
2023-05-02T18:25:00.766Z,5.57
2023-05-02T18:28:03.020Z,4.97
2023-05-02T18:31:04.854Z,5.30
2023-05-02T18:34:06.548Z,5.73
2023-05-02T18:37:08.264Z,5.13
2023-05-02T18:40:10.569Z,4.90
2023-05-02T18:43:12.132Z,10.97
2023-05-02T18:46:13.749Z,4.80
2023-05-02T18:49:15.788Z,5.80
2023-05-02T18:52:17.442Z,5.50
2023-05-02T18:55:19.592Z,7.17
2023-05-02T18:58:22.337Z,6.67
2023-05-02T19:01:24.629Z,6.33
2023-05-02T19:04:29.838Z,4.17
2023-05-02T19:07:31.498Z,4.70
2023-05-02T19:10:34.059Z,4.93
2023-05-02T19:13:40.148Z,6.30
2023-05-02T19:16:44.632Z,6.53
2023-05-02T19:19:48.038Z,6.93
2023-05-02T19:22:49.995Z,5.20
2023-05-02T19:25:52.421Z,5.60
2023-05-02T19:28:54.067Z,7.37
2023-05-02T19:31:55.865Z,6.83
2023-05-02T19:34:58.014Z,5.63
2023-05-02T19:37:59.626Z,5.10
2023-05-02T19:41:01.595Z,4.43
2023-05-02T19:44:03.372Z,8.07
2023-05-02T19:47:04.991Z,5.47
2023-05-02T19:50:07.536Z,6.33
2023-05-02T19:53:09.140Z,5.87
2023-05-02T19:56:10.977Z,11.47
2023-05-02T19:59:12.572Z,5.70
2023-05-02T20:02:14.239Z,7.97
2023-05-02T20:05:15.946Z,6.40
2023-05-02T20:08:18.002Z,5.77
2023-05-02T20:11:21.380Z,5.47
2023-05-02T20:14:22.938Z,5.50
2023-05-02T20:17:24.548Z,5.97
2023-05-02T20:20:26.392Z,5.87
2023-05-02T20:23:27.938Z,8.27
2023-05-02T20:26:31.267Z,6.37
2023-05-02T20:29:32.997Z,9.27
2023-05-02T20:32:36.746Z,6.53
2023-05-02T20:35:38.419Z,5.73
2023-05-02T20:38:42.323Z,6.93
2023-05-02T20:41:45.155Z,9.80
2023-05-02T20:44:47.497Z,7.07
2023-05-02T20:47:49.174Z,5.90
2023-05-02T20:50:54.548Z,6.20
2023-05-02T20:53:56.558Z,6.83
2023-05-02T20:56:58.234Z,6.80
2023-05-02T21:00:00.613Z,12.93
2023-05-02T21:03:02.720Z,7.80
2023-05-02T21:06:04.526Z,9.20
2023-05-02T21:09:09.087Z,11.03
2023-05-02T21:12:10.658Z,8.30
2023-05-02T21:15:14.301Z,7.20
2023-05-02T21:18:16.024Z,8.20
2023-05-02T21:21:17.691Z,9.00
2023-05-02T21:24:19.459Z,12.93
2023-05-02T21:27:22.745Z,7.73
2023-05-02T21:30:24.425Z,9.03
2023-05-02T21:33:26.044Z,11.50
2023-05-02T21:36:27.840Z,7.13
2023-05-02T21:39:29.381Z,8.60
2023-05-02T21:42:31.158Z,6.20
2023-05-02T21:45:32.846Z,7.57
2023-05-02T21:48:34.517Z,6.87
2023-05-02T21:51:38.514Z,12.20
2023-05-02T21:54:40.197Z,13.23
2023-05-02T21:57:41.847Z,7.90
2023-05-02T22:00:43.455Z,12.70
2023-05-02T22:03:45.175Z,12.03
2023-05-02T22:06:53.411Z,11.70
2023-05-02T22:09:55.034Z,6.90
2023-05-02T22:12:56.680Z,9.70
2023-05-02T22:15:58.214Z,11.70
2023-05-02T22:19:01.503Z,7.87
2023-05-02T22:22:03.803Z,8.80
2023-05-02T22:25:05.965Z,7.83
2023-05-02T22:28:11.208Z,8.77
2023-05-02T22:31:14.016Z,14.37
2023-05-02T22:34:16.021Z,9.57
2023-05-02T22:37:17.874Z,9.93
2023-05-02T22:40:19.758Z,8.10
2023-05-02T22:43:21.413Z,8.23
2023-05-02T22:46:23.136Z,10.10
2023-05-02T22:49:24.896Z,9.07
2023-05-02T22:52:29.912Z,12.07
2023-05-02T22:55:31.477Z,9.83
2023-05-02T22:58:33.339Z,12.60
2023-05-02T23:01:34.997Z,7.93
2023-05-02T23:04:36.577Z,9.43
2023-05-02T23:07:38.191Z,12.70
2023-05-02T23:10:39.819Z,10.97
2023-05-02T23:13:41.690Z,9.83
2023-05-02T23:16:43.337Z,13.67
2023-05-02T23:19:44.901Z,9.53
2023-05-02T23:22:46.646Z,10.70
2023-05-02T23:25:48.390Z,8.67
2023-05-02T23:28:49.948Z,12.10
2023-05-02T23:31:53.602Z,8.27
2023-05-02T23:34:56.260Z,9.70
2023-05-02T23:37:59.826Z,8.20
2023-05-02T23:41:01.426Z,10.97
2023-05-02T23:44:03.016Z,11.80
2023-05-02T23:47:04.720Z,13.17
2023-05-02T23:50:07.138Z,7.33
2023-05-02T23:53:08.757Z,8.80
2023-05-02T23:56:10.437Z,8.90
2023-05-02T23:59:12.008Z,9.30
